Time;durP1;ratioP1;P1;durP2;ratioP2;P2;SDS_P1;SDS_P2;PMS_P1;PMS_P2;Temp;Humidity;BMP_temperature;BMP_pressure;BME280_temperature;BME280_humidity;BME280_pressure;Samples;Min_cycle;Max_cycle;Signal;HPM_P1;HPM_P2
2021/06/13 00:00:26;;;;;;;24.60;6.03;;;12.40;99.90;;;;;;4993606;28;20499;-80
2021/06/13 00:02:52;;;;;;;28.95;4.82;;;12.50;99.90;;;;;;4993611;28;20072;-80
2021/06/13 00:05:18;;;;;;;24.35;6.20;;;12.50;99.90;;;;;;4994640;28;20022;-80
2021/06/13 00:07:43;;;;;;;22.45;5.68;;;12.50;99.90;;;;;;4993618;28;20475;-80
2021/06/13 00:10:11;;;;;;;27.92;5.45;;;12.50;99.90;;;;;;4994715;28;20033;-80
2021/06/13 00:12:37;;;;;;;27.52;4.57;;;12.60;99.90;;;;;;4994774;28;20101;-80
2021/06/13 00:15:05;;;;;;;26.27;4.97;;;12.60;99.90;;;;;;4994470;28;20065;-80
2021/06/13 00:17:31;;;;;;;25.30;5.35;;;12.60;99.90;;;;;;4994790;28;20033;-79
2021/06/13 00:19:56;;;;;;;31.38;5.68;;;12.70;99.90;;;;;;4994662;28;20034;-81
2021/06/13 00:22:22;;;;;;;26.23;6.78;;;12.80;99.90;;;;;;4994493;28;20097;-81
2021/06/13 00:24:47;;;;;;;25.33;5.88;;;12.80;99.90;;;;;;4994237;28;20053;-80
2021/06/13 00:27:13;;;;;;;28.92;5.47;;;12.90;99.90;;;;;;4992942;28;20023;-80
2021/06/13 00:29:38;;;;;;;23.98;4.72;;;12.90;99.90;;;;;;4994141;28;20023;-80
2021/06/13 00:32:05;;;;;;;28.02;4.82;;;12.90;99.90;;;;;;4994176;28;20023;-80
2021/06/13 00:34:31;;;;;;;25.48;4.40;;;12.90;99.90;;;;;;4992713;28;20084;-79
2021/06/13 00:36:56;;;;;;;24.20;5.78;;;13.00;99.90;;;;;;4992755;28;20112;-80
2021/06/13 00:39:22;;;;;;;24.42;4.97;;;12.90;99.90;;;;;;4993844;28;20511;-80
2021/06/13 00:41:47;;;;;;;22.58;5.47;;;12.90;99.90;;;;;;4994067;28;20491;-80
2021/06/13 00:44:13;;;;;;;22.70;5.25;;;12.80;99.90;;;;;;4993817;28;20073;-79
2021/06/13 00:46:40;;;;;;;39.40;6.75;;;12.70;99.90;;;;;;4984238;28;20146;-80
2021/06/13 00:49:06;;;;;;;23.92;5.93;;;12.60;99.90;;;;;;4973082;28;20030;-80
2021/06/13 00:51:32;;;;;;;32.55;5.78;;;12.50;99.90;;;;;;4974337;28;20026;-80
2021/06/13 00:53:57;;;;;;;39.05;6.80;;;12.60;99.90;;;;;;4974279;28;20126;-80
2021/06/13 00:56:23;;;;;;;41.42;7.18;;;12.60;99.90;;;;;;4974110;28;20035;-80
2021/06/13 00:58:49;;;;;;;21.83;7.63;;;12.60;99.90;;;;;;4974168;28;20058;-80
2021/06/13 01:01:15;;;;;;;33.15;6.88;;;12.70;99.90;;;;;;4972983;28;20436;-80
2021/06/13 01:03:42;;;;;;;28.13;6.15;;;12.70;99.90;;;;;;4972668;28;20181;-79
2021/06/13 01:06:08;;;;;;;26.92;6.18;;;12.70;99.90;;;;;;4972808;28;20518;-80
2021/06/13 01:08:51;;;;;;;28.38;7.03;;;12.70;99.90;;;;;;4973974;28;20030;-79
2021/06/13 01:11:26;;;;;;;27.25;5.13;;;12.80;99.90;;;;;;4972847;28;20084;-80
2021/06/13 01:14:06;;;;;;;30.50;6.80;;;12.80;99.90;;;;;;4973459;28;20035;-80
2021/06/13 01:17:02;;;;;;;29.25;7.03;;;12.80;99.90;;;;;;4972703;28;20027;-80
2021/06/13 01:19:59;;;;;;;28.77;6.03;;;12.80;99.90;;;;;;4966298;28;20038;-80
2021/06/13 01:22:34;;;;;;;32.53;6.80;;;12.70;99.90;;;;;;4973983;28;20031;-80
2021/06/13 01:25:18;;;;;;;22.27;4.97;;;12.80;99.90;;;;;;4974065;28;20030;-81
2021/06/13 01:27:59;;;;;;;26.90;5.97;;;12.80;99.90;;;;;;4974429;28;20038;-80
2021/06/13 01:30:28;;;;;;;25.50;6.18;;;12.80;99.90;;;;;;4974083;28;20093;-81
2021/06/13 01:32:58;;;;;;;25.15;6.53;;;12.80;99.90;;;;;;4973828;28;20495;-81
2021/06/13 01:35:26;;;;;;;30.75;6.55;;;12.80;99.90;;;;;;4973464;28;20039;-80
2021/06/13 01:37:54;;;;;;;33.47;6.80;;;12.80;99.90;;;;;;4973542;28;20035;-81
2021/06/13 01:40:22;;;;;;;38.17;6.95;;;12.80;99.90;;;;;;4973506;28;20023;-80
2021/06/13 01:42:52;;;;;;;32.55;7.10;;;12.80;99.90;;;;;;4972286;28;20624;-80
2021/06/13 01:45:21;;;;;;;21.00;6.45;;;12.80;99.90;;;;;;4973156;28;20030;-80
2021/06/13 01:47:48;;;;;;;31.17;7.95;;;12.80;99.90;;;;;;4954751;28;20031;-79
2021/06/13 01:50:15;;;;;;;36.53;7.60;;;12.80;99.90;;;;;;4954108;29;20492;-80
2021/06/13 01:52:42;;;;;;;32.22;6.47;;;12.90;99.90;;;;;;4954056;28;20171;-80
2021/06/13 01:55:10;;;;;;;25.23;6.85;;;12.90;99.90;;;;;;4954025;28;20042;-80
2021/06/13 01:57:39;;;;;;;35.08;7.03;;;12.90;99.90;;;;;;4952752;28;20174;-79
2021/06/13 02:00:10;;;;;;;27.27;5.82;;;12.90;99.90;;;;;;4953913;28;20034;-80
2021/06/13 02:02:37;;;;;;;23.75;5.97;;;12.90;99.90;;;;;;4952722;28;20041;-80
2021/06/13 02:05:05;;;;;;;19.83;6.55;;;12.90;99.90;;;;;;4953746;28;20094;-80
2021/06/13 02:07:35;;;;;;;26.30;5.75;;;12.90;99.90;;;;;;4967890;28;20036;-79
2021/06/13 02:10:04;;;;;;;36.97;6.65;;;12.90;99.90;;;;;;4952699;28;20122;-80
2021/06/13 02:12:30;;;;;;;23.00;5.47;;;12.90;99.90;;;;;;4953873;29;20028;-79
2021/06/13 02:14:57;;;;;;;33.22;6.07;;;12.90;99.90;;;;;;4952333;28;20031;-79
2021/06/13 02:17:23;;;;;;;24.92;6.63;;;12.90;99.90;;;;;;4952563;29;20046;-79
2021/06/13 02:19:52;;;;;;;34.20;5.85;;;13.00;99.90;;;;;;4968679;28;20492;-80
2021/06/13 02:22:19;;;;;;;26.67;6.43;;;13.00;99.90;;;;;;4952573;28;20035;-80
2021/06/13 02:24:45;;;;;;;28.52;7.03;;;13.00;99.90;;;;;;4953534;28;20095;-80
2021/06/13 02:27:13;;;;;;;19.98;6.40;;;13.00;99.90;;;;;;4952804;28;20627;-79
2021/06/13 02:29:40;;;;;;;22.98;6.18;;;13.10;99.90;;;;;;4967603;28;20476;-81
2021/06/13 02:32:09;;;;;;;25.13;6.55;;;13.10;99.90;;;;;;4952796;28;20058;-80
2021/06/13 02:34:35;;;;;;;22.45;6.15;;;13.20;99.90;;;;;;4953789;29;20074;-79
2021/06/13 02:37:02;;;;;;;20.60;6.30;;;13.20;99.90;;;;;;4954113;28;20043;-80
2021/06/13 02:39:28;;;;;;;16.30;5.60;;;13.20;99.90;;;;;;4953773;28;20024;-79
2021/06/13 02:41:53;;;;;;;34.25;7.30;;;13.20;99.90;;;;;;4953842;29;20034;-79
2021/06/13 02:44:20;;;;;;;26.73;7.38;;;13.10;99.90;;;;;;4953463;28;20131;-79
2021/06/13 02:46:46;;;;;;;20.88;6.10;;;13.20;99.90;;;;;;4972095;28;20107;-80
2021/06/13 02:49:12;;;;;;;33.63;8.23;;;13.20;99.90;;;;;;4953461;28;20030;-80
2021/06/13 02:51:45;;;;;;;20.80;6.80;;;13.20;99.90;;;;;;4952235;28;20024;-80
2021/06/13 02:54:11;;;;;;;37.00;6.90;;;13.20;99.90;;;;;;4952028;28;20034;-79
2021/06/13 02:56:52;;;;;;;22.30;6.80;;;13.20;99.90;;;;;;4953493;28;20484;-79
2021/06/13 02:59:48;;;;;;;19.60;6.50;;;13.10;99.90;;;;;;4952224;28;20031;-80
2021/06/13 03:02:20;;;;;;;30.95;8.50;;;13.20;99.90;;;;;;4952196;29;20170;-80
2021/06/13 03:04:47;;;;;;;28.08;8.43;;;13.20;99.90;;;;;;4953245;28;20059;-80
2021/06/13 03:07:17;;;;;;;25.98;8.85;;;13.20;99.90;;;;;;4952033;28;20540;-80
2021/06/13 03:09:43;;;;;;;23.50;7.63;;;13.30;99.90;;;;;;4953208;28;20027;-80
2021/06/13 03:12:09;;;;;;;24.80;7.88;;;13.20;99.90;;;;;;4952174;28;20028;-79
2021/06/13 03:14:36;;;;;;;33.28;8.60;;;13.20;99.90;;;;;;4953086;29;20034;-80
2021/06/13 03:17:02;;;;;;;23.77;8.10;;;13.10;99.90;;;;;;4953273;29;20031;-79
2021/06/13 03:19:29;;;;;;;31.33;8.57;;;13.00;99.90;;;;;;4955142;28;20504;-80
2021/06/13 03:21:56;;;;;;;31.40;8.63;;;12.90;99.90;;;;;;4955442;28;20031;-79
2021/06/13 03:24:23;;;;;;;24.95;8.80;;;12.90;99.90;;;;;;4955405;28;20144;-80
2021/06/13 03:26:51;;;;;;;32.80;8.73;;;12.80;99.90;;;;;;4956616;28;20114;-80
2021/06/13 03:29:18;;;;;;;35.35;8.85;;;12.80;99.90;;;;;;4956620;28;20027;-80
2021/06/13 03:31:45;;;;;;;32.83;11.23;;;12.80;99.90;;;;;;4956646;29;20019;-80
2021/06/13 03:34:12;;;;;;;29.80;8.98;;;12.80;99.90;;;;;;4971353;28;20055;-80
2021/06/13 03:36:41;;;;;;;30.45;9.82;;;12.80;99.90;;;;;;4956429;28;20031;-80
2021/06/13 03:39:07;;;;;;;28.60;8.82;;;12.90;99.90;;;;;;4956653;28;20051;-80
2021/06/13 03:41:34;;;;;;;25.48;9.30;;;12.90;99.90;;;;;;4956614;28;20027;-79
2021/06/13 03:44:00;;;;;;;24.60;9.38;;;12.90;99.90;;;;;;4956468;28;20110;-79
2021/06/13 03:46:26;;;;;;;30.60;10.48;;;12.80;99.90;;;;;;4963309;28;20023;-80
2021/06/13 03:48:54;;;;;;;34.60;10.40;;;12.80;99.90;;;;;;4974871;28;20046;-79
2021/06/13 03:51:21;;;;;;;21.42;7.90;;;12.70;99.90;;;;;;4975392;28;20030;-79
2021/06/13 03:53:48;;;;;;;26.25;8.63;;;12.70;99.90;;;;;;4974331;28;20030;-79
2021/06/13 03:56:16;;;;;;;38.92;10.07;;;12.80;99.90;;;;;;4975495;28;20035;-79
2021/06/13 03:58:43;;;;;;;29.05;9.02;;;12.80;99.90;;;;;;4974161;28;20026;-80
2021/06/13 04:01:11;;;;;;;27.02;8.93;;;12.90;99.90;;;;;;4974237;28;20035;-80
2021/06/13 04:03:40;;;;;;;30.13;9.73;;;13.00;99.90;;;;;;4975202;28;20078;-80
2021/06/13 04:06:07;;;;;;;30.35;9.10;;;13.20;99.90;;;;;;4973920;28;20031;-80
2021/06/13 04:08:33;;;;;;;30.35;9.32;;;13.40;99.90;;;;;;4974003;28;20023;-79
2021/06/13 04:10:59;;;;;;;29.85;9.05;;;13.40;99.90;;;;;;4974009;28;20491;-79
2021/06/13 04:13:28;;;;;;;32.55;8.77;;;13.50;99.90;;;;;;4975273;28;20061;-80
2021/06/13 04:15:54;;;;;;;28.33;9.77;;;13.50;99.90;;;;;;4974929;28;20027;-80
2021/06/13 04:18:20;;;;;;;31.52;8.93;;;13.60;99.90;;;;;;4973737;28;20491;-80
2021/06/13 04:20:47;;;;;;;22.02;8.05;;;13.70;99.90;;;;;;4973855;28;20033;-80
2021/06/13 04:23:14;;;;;;;27.35;9.05;;;13.70;99.90;;;;;;4975077;28;20066;-80
2021/06/13 04:25:40;;;;;;;30.80;9.05;;;13.90;99.90;;;;;;4973468;28;20109;-80
2021/06/13 04:28:06;;;;;;;28.75;9.10;;;13.90;99.90;;;;;;4974808;28;20027;-80
2021/06/13 04:30:33;;;;;;;46.40;9.75;;;14.00;99.90;;;;;;4973119;28;20027;-81
2021/06/13 04:32:59;;;;;;;26.25;8.63;;;14.20;99.90;;;;;;4974864;28;20406;-79
2021/06/13 04:35:24;;;;;;;19.88;7.63;;;14.40;99.90;;;;;;4974694;28;20106;-80
2021/06/13 04:37:50;;;;;;;28.90;7.95;;;14.30;99.90;;;;;;4973407;28;20138;-80
2021/06/13 04:40:16;;;;;;;35.10;8.30;;;14.30;99.90;;;;;;4974626;28;20026;-80
2021/06/13 04:42:41;;;;;;;32.83;8.50;;;14.20;99.90;;;;;;4973467;28;20034;-80
2021/06/13 04:45:08;;;;;;;33.22;8.90;;;14.00;99.90;;;;;;4973185;28;20614;-80
2021/06/13 04:47:35;;;;;;;29.58;8.63;;;13.80;99.90;;;;;;4957439;28;20027;-80
2021/06/13 04:50:02;;;;;;;36.50;8.55;;;13.80;99.90;;;;;;4955352;29;20042;-80
2021/06/13 04:52:30;;;;;;;25.08;8.50;;;13.70;99.90;;;;;;4969897;28;20027;-79
2021/06/13 04:55:35;;;;;;;23.92;9.65;;;13.60;99.90;;;;;;4969883;28;20164;-79
2021/06/13 04:58:06;;;;;;;21.75;8.55;;;13.70;99.90;;;;;;4898856;29;20036;-79
2021/06/13 05:00:32;;;;;;;30.63;8.57;;;13.80;99.90;;;;;;4949207;28;20098;-80
2021/06/13 05:02:57;;;;;;;24.92;8.43;;;13.70;99.90;;;;;;4954947;28;20436;-81
2021/06/13 05:05:23;;;;;;;20.70;8.70;;;13.80;99.90;;;;;;4954649;28;20094;-80
2021/06/13 05:07:49;;;;;;;28.35;8.40;;;13.80;99.90;;;;;;4954915;28;20047;-80
2021/06/13 05:10:15;;;;;;;23.52;7.47;;;13.80;99.90;;;;;;4954794;28;20061;-80
2021/06/13 05:12:51;;;;;;;22.70;7.68;;;13.90;99.90;;;;;;4969692;28;20035;-80
2021/06/13 05:15:19;;;;;;;21.98;8.02;;;14.10;99.90;;;;;;4954703;28;20098;-81
2021/06/13 05:17:45;;;;;;;24.10;8.48;;;14.20;99.90;;;;;;4954698;28;20102;-80
2021/06/13 05:20:11;;;;;;;18.20;7.85;;;14.50;99.90;;;;;;4954683;29;20062;-80
2021/06/13 05:22:59;;;;;;;26.98;8.00;;;14.70;99.90;;;;;;4969497;28;20077;-80
2021/06/13 05:25:27;;;;;;;28.80;8.73;;;14.80;99.90;;;;;;4954242;29;20042;-79
2021/06/13 05:27:55;;;;;;;26.65;8.82;;;15.00;99.90;;;;;;4954523;28;20023;-81
2021/06/13 05:30:21;;;;;;;26.73;8.15;;;15.20;99.90;;;;;;4954611;28;20023;-80
2021/06/13 05:32:46;;;;;;;26.15;9.73;;;15.10;99.90;;;;;;4954563;28;20066;-80
2021/06/13 05:35:12;;;;;;;25.08;7.60;;;14.90;99.90;;;;;;4954222;29;20586;-80
2021/06/13 05:37:38;;;;;;;25.98;7.05;;;14.60;99.90;;;;;;4969190;28;20035;-81
2021/06/13 05:40:08;;;;;;;24.08;7.60;;;14.40;99.90;;;;;;4954364;28;20034;-80
2021/06/13 05:42:34;;;;;;;25.50;7.32;;;14.30;99.90;;;;;;4952329;28;20081;-80
2021/06/13 05:45:00;;;;;;;29.13;6.45;;;14.10;99.90;;;;;;4954230;28;20023;-80
2021/06/13 05:47:25;;;;;;;18.13;5.45;;;14.00;99.90;;;;;;4965181;28;20027;-80
2021/06/13 05:49:51;;;;;;;23.83;5.88;;;14.00;99.90;;;;;;4984097;28;20061;-80
2021/06/13 05:52:16;;;;;;;28.90;6.22;;;13.90;99.90;;;;;;4988293;28;20019;-80
2021/06/13 05:54:42;;;;;;;22.98;6.07;;;13.90;99.90;;;;;;4973268;28;20031;-80
2021/06/13 05:57:07;;;;;;;23.13;5.88;;;13.90;99.90;;;;;;4973434;28;20442;-80
2021/06/13 05:59:33;;;;;;;19.02;6.82;;;13.90;99.90;;;;;;4988226;28;20023;-79
2021/06/13 06:01:58;;;;;;;27.38;6.30;;;14.00;99.90;;;;;;4971776;28;20062;-80
2021/06/13 06:04:24;;;;;;;28.85;6.30;;;14.00;99.90;;;;;;4972598;28;20060;-80
2021/06/13 06:06:49;;;;;;;17.13;4.93;;;14.20;99.90;;;;;;4972924;28;20035;-80
2021/06/13 06:09:15;;;;;;;22.60;6.05;;;14.40;99.90;;;;;;4971805;28;20031;-79
2021/06/13 06:11:42;;;;;;;19.63;6.13;;;14.40;99.90;;;;;;4973095;28;20023;-80
2021/06/13 06:14:09;;;;;;;24.42;7.10;;;14.30;99.90;;;;;;4972789;28;20387;-79
2021/06/13 06:16:35;;;;;;;26.42;6.32;;;14.20;99.90;;;;;;4972968;28;20189;-80
2021/06/13 06:19:01;;;;;;;26.73;7.22;;;14.20;99.90;;;;;;4972836;28;20511;-80
2021/06/13 06:21:26;;;;;;;19.55;5.60;;;14.40;99.90;;;;;;4972982;28;20027;-80
2021/06/13 06:23:53;;;;;;;25.55;6.30;;;14.50;99.90;;;;;;4971531;28;20041;-79
2021/06/13 06:26:19;;;;;;;24.38;6.90;;;14.60;99.90;;;;;;4973046;28;20575;-80
2021/06/13 06:28:45;;;;;;;22.70;6.18;;;14.50;99.90;;;;;;4972932;28;20031;-79
2021/06/13 06:31:11;;;;;;;29.27;7.65;;;14.50;99.90;;;;;;4971591;28;20377;-79
2021/06/13 06:33:37;;;;;;;20.65;6.88;;;14.50;99.90;;;;;;4972829;28;20472;-79
2021/06/13 06:36:03;;;;;;;21.95;6.50;;;14.50;99.90;;;;;;4972626;28;20113;-80
2021/06/13 06:38:28;;;;;;;22.70;6.22;;;14.70;99.90;;;;;;4971858;28;20067;-81
2021/06/13 06:40:54;;;;;;;26.50;6.90;;;14.90;99.90;;;;;;4972742;28;20038;-80
2021/06/13 06:43:20;;;;;;;26.13;7.25;;;14.70;99.90;;;;;;4971610;28;20077;-80
2021/06/13 06:45:45;;;;;;;27.25;6.70;;;14.80;99.90;;;;;;4972477;28;20031;-80
2021/06/13 06:48:11;;;;;;;21.50;6.65;;;14.80;99.90;;;;;;4972608;28;20113;-80
2021/06/13 06:50:36;;;;;;;28.90;6.65;;;14.90;99.90;;;;;;4987932;28;20081;-79
2021/06/13 06:53:02;;;;;;;19.88;6.22;;;14.90;99.90;;;;;;4973069;28;20015;-80
2021/06/13 06:55:27;;;;;;;17.48;5.93;;;15.00;99.90;;;;;;4976168;28;20042;-80
2021/06/13 06:57:53;;;;;;;23.02;6.07;;;15.40;99.90;;;;;;4991514;28;20027;-79
2021/06/13 07:00:19;;;;;;;26.67;6.50;;;15.60;99.90;;;;;;4976388;28;20034;-80
2021/06/13 07:02:45;;;;;;;29.35;7.45;;;15.50;99.90;;;;;;4976393;28;20394;-80
2021/06/13 07:05:12;;;;;;;26.20;7.68;;;15.30;99.90;;;;;;4976135;28;20100;-79
2021/06/13 07:07:37;;;;;;;21.08;6.88;;;15.10;99.90;;;;;;4991220;28;20030;-80
2021/06/13 07:10:04;;;;;;;21.55;6.20;;;15.10;99.90;;;;;;4976301;28;20031;-80
2021/06/13 07:12:30;;;;;;;19.73;6.20;;;15.20;99.90;;;;;;4976462;28;20045;-80
2021/06/13 07:14:55;;;;;;;17.08;6.00;;;15.10;99.90;;;;;;4974774;28;20542;-80
2021/06/13 07:17:21;;;;;;;18.85;5.93;;;15.10;99.90;;;;;;4976081;28;20030;-80
2021/06/13 07:19:46;;;;;;;20.23;6.00;;;15.00;99.90;;;;;;4976007;28;20030;-80
2021/06/13 07:22:12;;;;;;;33.88;9.55;;;15.10;99.90;;;;;;4976054;28;20085;-80
2021/06/13 07:24:38;;;;;;;27.02;6.63;;;15.20;99.90;;;;;;4974542;28;20031;-80
2021/06/13 07:27:04;;;;;;;25.63;6.57;;;15.30;99.90;;;;;;4975833;28;20035;-79
2021/06/13 07:29:30;;;;;;;24.55;6.40;;;15.40;99.90;;;;;;4966417;28;20471;-80
2021/06/13 07:31:56;;;;;;;17.75;6.25;;;15.40;99.90;;;;;;4970234;28;21398;-80
2021/06/13 07:34:22;;;;;;;24.70;6.65;;;15.60;99.90;;;;;;4971580;28;20033;-81
2021/06/13 07:36:47;;;;;;;29.98;7.03;;;15.60;99.90;;;;;;4970802;28;20039;-81
2021/06/13 07:39:13;;;;;;;23.65;6.38;;;15.60;99.90;;;;;;4971196;28;20038;-80
2021/06/13 07:41:39;;;;;;;27.45;8.55;;;15.70;99.90;;;;;;4969971;28;20029;-81
2021/06/13 07:44:05;;;;;;;20.25;6.28;;;15.90;99.90;;;;;;4971218;28;20113;-81
2021/06/13 07:46:35;;;;;;;26.52;8.40;;;15.90;99.90;;;;;;4969886;28;20061;-80
2021/06/13 07:49:02;;;;;;;16.48;6.05;;;15.80;99.90;;;;;;4974843;28;20027;-80
2021/06/13 07:51:28;;;;;;;24.80;8.15;;;15.70;99.90;;;;;;4974335;28;20125;-81
2021/06/13 07:53:54;;;;;;;23.85;6.72;;;15.60;99.90;;;;;;4974033;28;20054;-81
2021/06/13 07:56:19;;;;;;;23.42;7.75;;;15.80;99.90;;;;;;4975578;28;20467;-80
2021/06/13 07:58:45;;;;;;;30.23;9.25;;;16.30;99.90;;;;;;4975351;28;20039;-81
2021/06/13 08:01:10;;;;;;;25.98;6.93;;;16.20;99.90;;;;;;4974195;28;20403;-80
2021/06/13 08:03:40;;;;;;;24.73;7.43;;;16.10;99.90;;;;;;4975321;28;20483;-80
2021/06/13 08:06:06;;;;;;;25.67;8.43;;;16.00;99.90;;;;;;4974217;28;20030;-78
2021/06/13 08:08:31;;;;;;;18.20;7.22;;;16.10;99.90;;;;;;4975183;28;20030;-80
2021/06/13 08:10:57;;;;;;;29.05;6.55;;;16.20;99.90;;;;;;4973973;28;20027;-79
2021/06/13 08:13:22;;;;;;;25.25;7.90;;;16.20;99.90;;;;;;4975071;28;20098;-79
2021/06/13 08:15:49;;;;;;;24.27;8.57;;;16.30;99.90;;;;;;4974863;28;20027;-79
2021/06/13 08:18:14;;;;;;;28.90;7.45;;;16.60;99.90;;;;;;4974830;28;20077;-80
2021/06/13 08:20:40;;;;;;;27.50;7.65;;;16.40;99.90;;;;;;4973839;28;20023;-79
2021/06/13 08:23:06;;;;;;;25.63;7.15;;;16.10;99.90;;;;;;4973947;28;20054;-79
2021/06/13 08:25:32;;;;;;;21.38;7.75;;;16.00;99.90;;;;;;4974598;28;20015;-79
2021/06/13 08:27:57;;;;;;;30.23;7.50;;;16.00;99.90;;;;;;4974797;28;20015;-79
2021/06/13 08:30:23;;;;;;;27.50;7.82;;;15.90;99.90;;;;;;4974572;28;20027;-78
2021/06/13 08:32:49;;;;;;;26.02;7.85;;;15.90;99.90;;;;;;4974785;28;20023;-79
2021/06/13 08:35:15;;;;;;;37.17;7.70;;;16.10;99.90;;;;;;4974629;28;20492;-79
2021/06/13 08:37:41;;;;;;;25.17;6.78;;;16.00;99.90;;;;;;4974608;28;20121;-79
2021/06/13 08:40:10;;;;;;;25.25;7.65;;;16.40;99.90;;;;;;4974611;28;20559;-79
2021/06/13 08:42:37;;;;;;;22.75;7.45;;;16.50;99.90;;;;;;4974670;28;20065;-79
2021/06/13 08:45:04;;;;;;;30.55;7.63;;;16.40;99.90;;;;;;4973145;28;20037;-79
2021/06/13 08:47:30;;;;;;;20.92;6.60;;;16.50;99.90;;;;;;4969762;28;20047;-80
2021/06/13 08:49:56;;;;;;;20.30;7.53;;;16.60;99.90;;;;;;4978526;28;20054;-79
2021/06/13 08:52:22;;;;;;;26.00;7.22;;;16.60;99.90;;;;;;4980973;28;20058;-83
2021/06/13 08:54:47;;;;;;;34.83;7.82;;;16.40;99.90;;;;;;4974198;28;20031;-82
2021/06/13 08:57:14;;;;;;;24.20;8.40;;;16.40;99.90;;;;;;4973321;28;20062;-85
2021/06/13 08:59:42;;;;;;;19.40;6.78;;;16.50;99.90;;;;;;4989154;28;20135;-81
2021/06/13 09:02:08;;;;;;;21.38;7.10;;;16.50;99.90;;;;;;4974369;28;20317;-81
2021/06/13 09:04:35;;;;;;;17.98;6.80;;;16.90;99.90;;;;;;4972837;28;20027;-83
2021/06/13 09:07:20;;;;;;;24.60;7.45;;;16.80;99.90;;;;;;4989149;28;20030;-84
2021/06/13 09:09:46;;;;;;;29.75;7.10;;;16.70;99.90;;;;;;4988900;28;20023;-86
2021/06/13 09:12:12;;;;;;;25.10;6.50;;;17.00;99.90;;;;;;4974258;28;20033;-86
2021/06/13 09:14:42;;;;;;;26.92;6.60;;;17.20;99.90;;;;;;4989290;28;20018;-81
2021/06/13 09:17:20;;;;;;;17.63;6.47;;;17.00;99.90;;;;;;4972720;28;20030;-82
2021/06/13 09:20:05;;;;;;;22.70;6.88;;;16.90;99.90;;;;;;4988819;28;20026;-85
2021/06/13 09:22:31;;;;;;;22.98;7.00;;;16.90;99.90;;;;;;4989043;28;20037;-83
2021/06/13 09:25:04;;;;;;;25.77;6.90;;;17.20;99.90;;;;;;4973833;28;20031;-84
2021/06/13 09:27:30;;;;;;;16.07;5.93;;;17.60;99.90;;;;;;4988586;28;20077;-83
2021/06/13 09:29:55;;;;;;;23.20;8.05;;;18.00;99.90;;;;;;4988865;28;20026;-81
2021/06/13 09:32:21;;;;;;;21.92;7.60;;;17.90;99.90;;;;;;4973750;28;20062;-83
2021/06/13 09:35:22;;;;;;;14.68;6.43;;;17.90;99.90;;;;;;4973350;28;20038;-83
2021/06/13 09:38:08;;;;;;;23.55;7.13;;;17.60;99.90;;;;;;4973634;28;20557;-81
2021/06/13 09:40:36;;;;;;;16.48;5.97;;;18.30;99.90;;;;;;4964129;28;20058;-81
2021/06/13 09:43:17;;;;;;;19.13;6.40;;;18.50;99.90;;;;;;4968299;28;20502;-82
2021/06/13 09:45:48;;;;;;;13.52;4.60;;;18.30;99.90;;;;;;4967895;28;20069;-80
2021/06/13 09:48:14;;;;;;;16.80;5.40;;;18.10;99.90;;;;;;4984296;28;20027;-82
2021/06/13 09:50:46;;;;;;;14.75;4.50;;;18.20;99.90;;;;;;4982153;28;20377;-79
2021/06/13 09:53:30;;;;;;;15.98;5.32;;;18.40;99.90;;;;;;4967411;28;20552;-80
2021/06/13 09:56:14;;;;;;;21.20;6.82;;;18.40;99.90;;;;;;4968318;28;20479;-81
2021/06/13 09:58:55;;;;;;;15.43;4.70;;;18.30;99.90;;;;;;4977093;28;20380;-83
2021/06/13 10:01:24;;;;;;;16.05;5.57;;;18.20;99.90;;;;;;4969635;28;20739;-80
2021/06/13 10:03:49;;;;;;;19.15;5.57;;;18.60;99.90;;;;;;4969028;28;20563;-79
2021/06/13 10:06:20;;;;;;;23.08;6.13;;;19.00;99.90;;;;;;4978097;28;20138;-80
2021/06/13 10:08:47;;;;;;;23.65;6.28;;;19.00;99.90;;;;;;4969220;28;20585;-80
2021/06/13 10:11:14;;;;;;;18.30;5.90;;;18.80;99.90;;;;;;4968804;28;20540;-80
2021/06/13 10:13:53;;;;;;;18.85;6.18;;;18.20;99.90;;;;;;4967410;28;20114;-81
2021/06/13 10:16:30;;;;;;;18.55;5.75;;;18.20;99.90;;;;;;4968737;28;20034;-81
2021/06/13 10:19:07;;;;;;;15.60;4.97;;;18.90;99.90;;;;;;4970168;28;20027;-80
2021/06/13 10:21:36;;;;;;;16.65;5.07;;;19.20;99.90;;;;;;4968721;28;20029;-80
2021/06/13 10:24:09;;;;;;;14.77;4.97;;;19.60;99.90;;;;;;4968707;28;20018;-80
2021/06/13 10:26:36;;;;;;;15.18;4.88;;;19.10;99.90;;;;;;4969130;28;20038;-81
2021/06/13 10:29:03;;;;;;;18.02;6.10;;;19.40;99.90;;;;;;4968942;28;20019;-80
2021/06/13 10:31:29;;;;;;;14.70;5.07;;;19.60;99.90;;;;;;4971745;28;20027;-80
2021/06/13 10:33:55;;;;;;;21.00;5.32;;;19.50;99.90;;;;;;4972686;28;20105;-80
2021/06/13 10:36:20;;;;;;;16.17;5.00;;;19.30;99.90;;;;;;4972978;28;20106;-81
2021/06/13 10:38:46;;;;;;;20.77;5.03;;;19.00;99.90;;;;;;4972701;28;20030;-81
2021/06/13 10:41:12;;;;;;;18.65;5.53;;;19.30;99.90;;;;;;4976743;28;20061;-79
2021/06/13 10:43:38;;;;;;;19.65;5.40;;;19.20;99.90;;;;;;4976615;28;20440;-80
2021/06/13 10:46:11;;;;;;;17.90;5.72;;;19.10;99.90;;;;;;4976487;28;20058;-79
2021/06/13 10:48:49;;;;;;;17.90;6.32;;;18.90;99.90;;;;;;4976644;28;20054;-79
2021/06/13 10:51:35;;;;;;;16.25;6.90;;;18.40;99.90;;;;;;4976714;28;20023;-79
2021/06/13 10:54:31;;;;;;;24.92;7.28;;;18.40;99.90;;;;;;4976239;28;20025;-80
2021/06/13 10:57:17;;;;;;;17.23;6.15;;;18.90;99.90;;;;;;4976477;28;20104;-80
2021/06/13 10:59:46;;;;;;;20.15;5.65;;;18.90;99.90;;;;;;4975184;28;20029;-80
2021/06/13 11:02:17;;;;;;;25.40;6.57;;;18.90;99.90;;;;;;4976540;28;20491;-80
2021/06/13 11:04:54;;;;;;;17.80;5.55;;;18.90;99.90;;;;;;4966357;28;20046;-82
2021/06/13 11:07:29;;;;;;;18.60;5.90;;;18.60;99.90;;;;;;4970976;28;20023;-81
2021/06/13 11:12:49;;;;;;;26.77;6.70;;;18.40;99.90;;;;;;4977192;28;20034;-82
2021/06/13 11:15:36;;;;;;;24.50;5.47;;;18.00;99.90;;;;;;4972220;28;20027;-81
2021/06/13 11:18:05;;;;;;;23.27;7.10;;;18.10;99.90;;;;;;4971042;28;20066;-82
2021/06/13 11:20:33;;;;;;;22.17;6.40;;;18.20;99.90;;;;;;4972232;28;20066;-81
2021/06/13 11:23:01;;;;;;;22.48;5.72;;;18.30;99.90;;;;;;4970760;28;20027;-81
2021/06/13 11:25:30;;;;;;;15.63;6.68;;;18.30;99.90;;;;;;4969927;28;20046;-81
2021/06/13 11:28:12;;;;;;;26.58;6.70;;;18.20;99.90;;;;;;4969873;28;20653;-80
2021/06/13 11:30:45;;;;;;;22.77;6.13;;;18.10;99.90;;;;;;4994190;28;20533;-81
2021/06/13 11:33:17;;;;;;;19.25;6.00;;;18.20;99.90;;;;;;4994013;28;20023;-80
2021/06/13 11:35:45;;;;;;;23.27;6.30;;;18.60;99.90;;;;;;4994100;28;20027;-80
2021/06/13 11:38:13;;;;;;;19.60;6.22;;;18.40;99.90;;;;;;4993698;28;20042;-80
2021/06/13 11:40:48;;;;;;;17.75;4.95;;;18.20;99.90;;;;;;4993830;28;20026;-79
2021/06/13 11:43:19;;;;;;;15.80;5.55;;;18.10;99.90;;;;;;4993960;28;20050;-80
2021/06/13 11:45:58;;;;;;;20.45;5.05;;;18.50;99.90;;;;;;4992349;28;20073;-80
2021/06/13 11:48:26;;;;;;;16.52;5.95;;;18.60;99.90;;;;;;4975658;28;20138;-80
2021/06/13 11:51:11;;;;;;;18.58;6.40;;;18.20;99.90;;;;;;4976146;28;20360;-80
2021/06/13 11:54:06;;;;;;;13.98;5.25;;;18.50;99.90;;;;;;4984550;28;20015;-79
2021/06/13 11:56:35;;;;;;;16.55;5.88;;;18.50;99.90;;;;;;4975397;28;20454;-81
2021/06/13 11:59:08;;;;;;;17.83;6.22;;;18.30;99.90;;;;;;4990324;28;20026;-79
2021/06/13 12:01:35;;;;;;;18.80;5.75;;;18.50;99.90;;;;;;4975475;28;20034;-80
2021/06/13 12:04:02;;;;;;;16.70;5.38;;;18.80;99.90;;;;;;4975235;28;20031;-82
2021/06/13 12:06:28;;;;;;;16.73;5.50;;;18.90;99.90;;;;;;4973985;28;20038;-82
2021/06/13 12:08:54;;;;;;;20.90;6.75;;;18.80;99.90;;;;;;4975106;28;20030;-81
2021/06/13 12:11:42;;;;;;;19.67;5.28;;;18.40;99.90;;;;;;4975162;28;20050;-80
2021/06/13 12:14:24;;;;;;;15.57;4.28;;;18.60;99.90;;;;;;4969929;28;20031;-79
2021/06/13 12:17:00;;;;;;;16.42;4.53;;;18.30;99.90;;;;;;4970048;28;20088;-80
2021/06/13 12:19:38;;;;;;;10.90;4.97;;;18.30;99.90;;;;;;4970545;28;20708;-81
2021/06/13 12:27:43;;;;;;;13.85;4.85;;;18.50;99.90;;;;;;4972702;28;20038;-80
2021/06/13 12:30:17;;;;;;;18.38;4.80;;;18.90;99.90;;;;;;4975091;28;20019;-82
2021/06/13 12:32:53;;;;;;;14.13;4.10;;;19.50;99.90;;;;;;4973610;28;20022;-82
2021/06/13 12:35:19;;;;;;;17.10;4.60;;;19.80;99.90;;;;;;4989755;28;20042;-80
2021/06/13 12:38:03;;;;;;;16.23;4.10;;;19.10;99.90;;;;;;4973542;28;20058;-79
2021/06/13 12:40:35;;;;;;;16.60;5.05;;;18.60;99.90;;;;;;4974687;28;20495;-79
2021/06/13 12:43:02;;;;;;;12.90;4.32;;;18.60;99.90;;;;;;4974552;28;20034;-80
2021/06/13 12:45:28;;;;;;;16.27;3.60;;;18.90;99.90;;;;;;4974386;28;20065;-81
2021/06/13 12:47:58;;;;;;;9.05;3.85;;;18.90;99.90;;;;;;4974270;28;20031;-82
2021/06/13 12:50:35;;;;;;;11.55;3.97;;;18.80;99.90;;;;;;4974546;28;20023;-81
2021/06/13 12:53:02;;;;;;;9.77;4.13;;;18.90;99.90;;;;;;4973880;28;20479;-81